createdAt,value
2019-02-12T00:00:08.876Z,2.57
2019-02-12T00:02:37.586Z,2.67
2019-02-12T00:05:06.391Z,2.60
2019-02-12T00:07:35.119Z,2.70
2019-02-12T00:10:04.840Z,3.17
2019-02-12T00:12:33.528Z,2.83
2019-02-12T00:15:02.190Z,3.20
2019-02-12T00:17:30.890Z,2.33
2019-02-12T00:19:59.589Z,2.07
2019-02-12T00:22:28.347Z,3.13
2019-02-12T00:24:57.051Z,2.90
2019-02-12T00:27:25.763Z,3.00
2019-02-12T00:29:54.465Z,3.03
2019-02-12T00:32:23.532Z,3.40
2019-02-12T00:34:52.239Z,3.47
2019-02-12T00:37:20.929Z,3.50
2019-02-12T00:39:49.607Z,3.50
2019-02-12T00:42:18.316Z,2.70
2019-02-12T00:44:47.029Z,3.33
2019-02-12T00:47:15.715Z,3.73
2019-02-12T00:49:44.419Z,2.77
2019-02-12T00:52:13.144Z,3.43
2019-02-12T00:54:41.811Z,3.13
2019-02-12T00:57:10.603Z,4.53
2019-02-12T00:59:39.272Z,3.60
2019-02-12T01:02:08.180Z,4.30
2019-02-12T01:04:36.882Z,4.30
2019-02-12T01:07:05.542Z,4.87
2019-02-12T01:09:34.351Z,6.00
2019-02-12T01:12:03.019Z,5.80
2019-02-12T01:14:31.836Z,4.90
2019-02-12T01:17:00.533Z,7.20
2019-02-12T01:19:29.297Z,6.07
2019-02-12T01:21:57.949Z,5.33
2019-02-12T01:24:26.681Z,5.17
2019-02-12T01:26:55.414Z,5.13
2019-02-12T01:29:24.077Z,5.20
2019-02-12T01:31:52.796Z,4.80
2019-02-12T01:34:21.577Z,4.53
2019-02-12T01:36:50.400Z,3.67
2019-02-12T01:39:19.076Z,4.27
2019-02-12T01:41:47.804Z,3.70
2019-02-12T01:44:16.473Z,4.50
2019-02-12T01:46:45.177Z,4.07
2019-02-12T01:49:13.864Z,4.23
2019-02-12T01:51:42.642Z,5.37
2019-02-12T01:54:11.432Z,4.73
2019-02-12T01:56:40.268Z,3.90
2019-02-12T01:59:08.983Z,4.80
2019-02-12T02:01:37.662Z,4.47
2019-02-12T02:04:06.363Z,4.00
2019-02-12T02:06:35.093Z,5.00
2019-02-12T02:09:05.188Z,4.27
2019-02-12T02:11:33.967Z,3.43
2019-02-12T02:14:02.753Z,5.03
2019-02-12T02:16:31.451Z,5.57
2019-02-12T02:19:00.359Z,4.50
2019-02-12T02:21:29.075Z,4.80
2019-02-12T02:23:57.728Z,3.80
2019-02-12T02:26:26.430Z,4.33
2019-02-12T02:28:55.143Z,4.83
2019-02-12T02:31:23.933Z,4.23
2019-02-12T02:33:52.651Z,3.73
2019-02-12T02:36:21.441Z,5.23
2019-02-12T02:38:50.117Z,5.50
2019-02-12T02:41:18.831Z,5.33
2019-02-12T02:43:47.607Z,4.67
2019-02-12T02:46:16.289Z,5.17
2019-02-12T02:48:44.996Z,6.50
2019-02-12T02:51:13.668Z,7.33
2019-02-12T02:53:42.404Z,6.90
2019-02-12T02:56:11.090Z,7.10
2019-02-12T02:58:39.747Z,9.20
2019-02-12T03:01:08.462Z,7.37
2019-02-12T03:03:37.169Z,6.20
2019-02-12T03:06:05.865Z,6.00
2019-02-12T03:08:34.548Z,6.63
2019-02-12T03:11:03.258Z,6.43
2019-02-12T03:13:32.404Z,6.20
2019-02-12T03:16:01.122Z,6.27
2019-02-12T03:18:29.855Z,5.37
2019-02-12T03:20:58.564Z,6.27
2019-02-12T03:23:27.239Z,5.50
2019-02-12T03:25:55.947Z,6.47
2019-02-12T03:28:24.665Z,6.80
2019-02-12T03:30:53.353Z,6.00
2019-02-12T03:33:22.119Z,7.00
2019-02-12T03:35:50.957Z,6.50
2019-02-12T03:38:19.843Z,6.67
2019-02-12T03:40:48.519Z,6.60
2019-02-12T03:43:17.248Z,6.17
2019-02-12T03:45:45.912Z,7.57
2019-02-12T03:48:14.633Z,7.07
2019-02-12T03:50:43.332Z,8.03
2019-02-12T03:53:12.216Z,6.43
2019-02-12T03:55:40.966Z,6.00
2019-02-12T03:58:09.641Z,5.80
2019-02-12T04:00:38.348Z,6.80
2019-02-12T04:03:08.076Z,6.50
2019-02-12T04:05:38.058Z,5.87
2019-02-12T04:08:06.839Z,6.30
2019-02-12T04:10:35.548Z,6.87
2019-02-12T04:13:04.352Z,6.80
2019-02-12T04:15:33.176Z,5.80
2019-02-12T04:18:01.859Z,6.60
2019-02-12T04:20:30.600Z,6.83
2019-02-12T04:22:59.363Z,6.80
2019-02-12T04:25:28.113Z,6.20
2019-02-12T04:27:56.850Z,7.17
2019-02-12T04:30:25.639Z,7.10
2019-02-12T04:32:54.314Z,7.10
2019-02-12T04:35:22.996Z,6.13
2019-02-12T04:37:51.682Z,7.53
2019-02-12T04:40:20.351Z,5.00
2019-02-12T04:42:49.072Z,6.77
2019-02-12T04:45:17.732Z,7.00
2019-02-12T04:47:46.399Z,6.57
2019-02-12T04:50:16.115Z,7.77
2019-02-12T04:52:44.827Z,9.17
2019-02-12T04:55:13.657Z,8.33
2019-02-12T04:57:42.361Z,8.37
2019-02-12T05:00:16.354Z,8.43
2019-02-12T05:02:45.220Z,8.23
2019-02-12T05:05:13.954Z,8.17
2019-02-12T05:07:42.622Z,8.87
2019-02-12T05:10:14.235Z,7.90
2019-02-12T05:12:42.968Z,6.20
2019-02-12T05:15:11.680Z,8.23
2019-02-12T05:17:40.363Z,7.03
2019-02-12T05:20:11.712Z,11.20
2019-02-12T05:22:43.512Z,6.87
2019-02-12T05:25:10.834Z,6.33
2019-02-12T05:27:39.519Z,8.10
2019-02-12T05:30:13.635Z,7.60
2019-02-12T05:32:42.426Z,7.30
2019-02-12T05:35:11.184Z,7.23
2019-02-12T05:37:39.898Z,6.60
2019-02-12T05:40:10.143Z,6.20
2019-02-12T05:42:38.856Z,6.93
2019-02-12T05:45:12.637Z,6.10
2019-02-12T05:47:41.540Z,6.93
2019-02-12T05:50:12.344Z,5.23
2019-02-12T05:52:41.078Z,5.43
2019-02-12T05:55:10.425Z,5.67
2019-02-12T05:57:39.197Z,6.47
2019-02-12T06:00:20.064Z,5.73
2019-02-12T06:02:48.776Z,6.70
2019-02-12T06:05:29.521Z,8.07
2019-02-12T06:07:58.454Z,6.93
2019-02-12T06:10:27.236Z,7.63
2019-02-12T06:12:56.112Z,7.60
2019-02-12T06:15:24.782Z,7.93
2019-02-12T06:17:53.491Z,11.20
2019-02-12T06:20:22.299Z,7.27
2019-02-12T06:22:50.967Z,8.23
2019-02-12T06:25:19.703Z,6.37
2019-02-12T06:27:48.414Z,6.63
2019-02-12T06:30:17.087Z,6.43
2019-02-12T06:32:45.818Z,6.77
2019-02-12T06:35:14.582Z,5.20
2019-02-12T06:37:43.350Z,6.60
2019-02-12T06:40:12.482Z,5.63
2019-02-12T06:42:41.192Z,5.70
2019-02-12T06:45:14.147Z,6.80
2019-02-12T06:47:42.855Z,6.90
2019-02-12T06:50:14.974Z,6.20
2019-02-12T06:52:43.696Z,7.23
2019-02-12T06:55:12.401Z,6.90
2019-02-12T06:57:41.068Z,6.30
2019-02-12T07:00:14.888Z,6.00
2019-02-12T07:03:14.683Z,6.07
2019-02-12T07:06:05.998Z,5.33
2019-02-12T07:08:54.383Z,9.17
2019-02-12T07:11:25.982Z,6.20
2019-02-12T07:14:12.975Z,5.70
2019-02-12T07:17:13.614Z,5.30
2019-02-12T07:20:01.887Z,6.33
2019-02-12T07:22:39.483Z,6.03
2019-02-12T07:25:26.391Z,6.50
2019-02-12T07:28:03.475Z,6.00
2019-02-12T07:30:46.730Z,6.43
2019-02-12T07:33:30.468Z,6.20
2019-02-12T07:36:08.176Z,6.00
2019-02-12T07:39:02.636Z,10.30
2019-02-12T07:41:46.465Z,8.97
2019-02-12T07:44:21.078Z,7.23
2019-02-12T07:47:01.655Z,7.20
2019-02-12T07:49:50.009Z,6.30
2019-02-12T07:52:36.841Z,7.87
2019-02-12T07:55:20.418Z,6.47
2019-02-12T07:57:54.852Z,6.97
2019-02-12T08:00:35.568Z,7.77
2019-02-12T08:03:33.210Z,7.40
2019-02-12T08:06:17.043Z,7.40
2019-02-12T08:08:57.653Z,6.10
2019-02-12T08:11:50.720Z,5.83
2019-02-12T08:14:43.419Z,6.60
2019-02-12T08:17:30.497Z,7.27
2019-02-12T08:20:10.689Z,7.40
2019-02-12T08:22:47.993Z,7.00
2019-02-12T08:25:25.691Z,5.60
2019-02-12T08:27:57.338Z,6.73
2019-02-12T08:30:41.157Z,5.77
2019-02-12T08:33:12.779Z,7.10
2019-02-12T08:36:08.386Z,6.83
2019-02-12T08:38:49.015Z,7.23
2019-02-12T08:41:29.725Z,6.00
2019-02-12T08:44:10.052Z,6.80
2019-02-12T08:46:50.570Z,7.67
2019-02-12T08:49:31.281Z,7.60
2019-02-12T08:52:38.021Z,5.70
2019-02-12T08:55:21.790Z,7.50
2019-02-12T08:57:56.415Z,7.30
2019-02-12T09:00:34.215Z,6.67
2019-02-12T09:03:17.700Z,7.17
2019-02-12T09:05:58.518Z,7.20
2019-02-12T09:08:30.122Z,8.97
2019-02-12T09:11:16.932Z,6.77
2019-02-12T09:13:54.375Z,7.30
2019-02-12T09:16:31.918Z,8.10
2019-02-12T09:19:15.816Z,6.10
2019-02-12T09:22:05.814Z,7.17
2019-02-12T09:24:40.606Z,6.37
2019-02-12T09:27:29.899Z,7.60
2019-02-12T09:30:22.693Z,6.93
2019-02-12T09:33:14.938Z,6.43
2019-02-12T09:35:57.823Z,7.27
2019-02-12T09:38:49.396Z,7.87
2019-02-12T09:41:21.026Z,7.07
2019-02-12T09:43:52.879Z,7.93
2019-02-12T09:46:44.205Z,7.70
2019-02-12T09:49:18.745Z,7.27
2019-02-12T09:52:05.446Z,7.20
2019-02-12T09:54:54.147Z,8.17
2019-02-12T09:57:42.495Z,7.37
2019-02-12T10:00:41.586Z,6.03
2019-02-12T10:03:34.728Z,6.60
2019-02-12T10:06:09.204Z,7.60
2019-02-12T10:08:44.017Z,7.67
2019-02-12T10:11:21.749Z,7.47
2019-02-12T10:14:11.891Z,7.87
2019-02-12T10:16:55.639Z,7.03
2019-02-12T10:19:48.254Z,8.40
2019-02-12T10:22:25.847Z,5.77
2019-02-12T10:25:00.802Z,7.50
2019-02-12T10:27:38.368Z,6.73
2019-02-12T10:30:15.957Z,6.73
2019-02-12T10:32:44.659Z,6.27
2019-02-12T10:35:14.028Z,6.30
2019-02-12T10:37:42.825Z,6.43
2019-02-12T10:40:11.532Z,9.30
2019-02-12T10:42:40.287Z,6.93
2019-02-12T10:45:09.412Z,7.00
2019-02-12T10:47:38.113Z,7.30
2019-02-12T10:50:08.568Z,7.10
2019-02-12T10:52:37.367Z,8.23
2019-02-12T10:55:06.446Z,7.50
2019-02-12T10:57:35.240Z,6.70
2019-02-12T11:00:07.072Z,7.90
2019-02-12T11:02:35.775Z,7.13
2019-02-12T11:05:04.662Z,11.33
2019-02-12T11:07:33.377Z,8.23
2019-02-12T11:10:02.067Z,8.80
2019-02-12T11:12:30.776Z,6.97
2019-02-12T11:14:59.482Z,8.63
2019-02-12T11:17:28.215Z,10.80
2019-02-12T11:19:56.921Z,8.77
2019-02-12T11:22:25.605Z,11.70
2019-02-12T11:24:54.313Z,7.50
2019-02-12T11:27:22.990Z,8.23
2019-02-12T11:29:51.703Z,9.30
2019-02-12T11:32:20.387Z,9.00
2019-02-12T11:34:49.097Z,10.37
2019-02-12T11:37:17.805Z,11.00
2019-02-12T11:39:46.523Z,8.67
2019-02-12T11:42:15.240Z,8.57
2019-02-12T11:44:43.909Z,9.90
2019-02-12T11:47:12.629Z,10.60
2019-02-12T11:49:41.312Z,8.80
2019-02-12T11:52:10.043Z,8.50
2019-02-12T11:54:43.558Z,8.63
2019-02-12T11:57:09.255Z,8.50
2019-02-12T11:59:37.932Z,9.17
2019-02-12T12:02:06.654Z,12.50
2019-02-12T12:04:35.348Z,10.07
2019-02-12T12:07:04.134Z,9.87
2019-02-12T12:09:32.839Z,8.30
2019-02-12T12:12:01.517Z,8.73
2019-02-12T12:14:30.217Z,8.80
2019-02-12T12:16:58.927Z,9.43
2019-02-12T12:19:27.633Z,9.90
2019-02-12T12:21:56.309Z,9.43
2019-02-12T12:24:25.038Z,10.27
2019-02-12T12:26:53.711Z,9.40
2019-02-12T12:29:22.432Z,9.53
2019-02-12T12:31:53.364Z,10.43
2019-02-12T12:34:22.052Z,10.03
2019-02-12T12:36:50.789Z,8.43
2019-02-12T12:39:19.439Z,8.87
2019-02-12T12:41:48.349Z,8.83
2019-02-12T12:44:17.145Z,7.60
2019-02-12T12:46:45.823Z,7.20
2019-02-12T12:49:14.487Z,8.07
2019-02-12T12:51:43.184Z,9.50
2019-02-12T12:54:11.847Z,8.20
2019-02-12T12:56:40.550Z,8.33
2019-02-12T12:59:09.240Z,8.23
2019-02-12T13:01:37.950Z,7.50
2019-02-12T13:04:06.639Z,6.97
2019-02-12T13:06:35.330Z,7.40
2019-02-12T13:09:05.662Z,8.27
2019-02-12T13:11:35.823Z,6.97
2019-02-12T13:14:04.739Z,6.43
2019-02-12T13:16:33.452Z,5.73
2019-02-12T13:19:02.173Z,7.50
2019-02-12T13:21:30.894Z,8.77
2019-02-12T13:23:59.611Z,6.73
2019-02-12T13:26:28.280Z,5.83
2019-02-12T13:28:56.998Z,7.40
2019-02-12T13:31:25.710Z,6.93
2019-02-12T13:33:54.463Z,6.47
2019-02-12T13:36:23.145Z,6.73
2019-02-12T13:38:51.839Z,6.13
2019-02-12T13:41:20.542Z,9.33
2019-02-12T13:43:49.266Z,6.33
2019-02-12T13:46:20.119Z,7.07
2019-02-12T13:48:48.838Z,5.63
2019-02-12T13:51:17.522Z,7.40
2019-02-12T13:53:46.205Z,6.50
2019-02-12T13:56:14.935Z,7.30
2019-02-12T13:58:43.615Z,6.57
2019-02-12T14:01:12.303Z,6.67
2019-02-12T14:03:41.111Z,6.90
2019-02-12T14:06:09.970Z,6.77
2019-02-12T14:08:38.837Z,6.90
2019-02-12T14:11:07.532Z,6.10
2019-02-12T14:13:36.209Z,5.80
2019-02-12T14:16:05.012Z,5.27
2019-02-12T14:18:33.746Z,6.50
2019-02-12T14:21:02.429Z,4.63
2019-02-12T14:23:31.218Z,4.97
2019-02-12T14:25:59.896Z,4.80
2019-02-12T14:28:28.595Z,4.93
2019-02-12T14:30:57.306Z,4.90
2019-02-12T14:33:26.013Z,5.30
2019-02-12T14:35:54.693Z,5.80
2019-02-12T14:38:23.404Z,6.23
2019-02-12T14:40:52.083Z,5.53
2019-02-12T14:43:20.788Z,5.27
2019-02-12T14:45:49.491Z,5.57
2019-02-12T14:48:18.202Z,6.57
2019-02-12T14:50:46.877Z,5.70
2019-02-12T14:53:15.601Z,5.13
2019-02-12T14:55:44.308Z,5.67
2019-02-12T14:58:12.979Z,5.40
2019-02-12T15:00:41.814Z,6.20
2019-02-12T15:03:10.523Z,5.40
2019-02-12T15:05:39.303Z,6.10
2019-02-12T15:08:08.014Z,4.70
2019-02-12T15:10:36.834Z,6.00
2019-02-12T15:13:05.504Z,5.33
2019-02-12T15:15:34.221Z,5.03
2019-02-12T15:18:02.896Z,5.80
2019-02-12T15:20:31.807Z,5.13
2019-02-12T15:23:00.545Z,6.50
2019-02-12T15:25:29.236Z,6.10
2019-02-12T15:27:57.954Z,4.80
2019-02-12T15:30:26.735Z,5.27
2019-02-12T15:32:55.417Z,5.37
2019-02-12T15:35:24.135Z,5.70
2019-02-12T15:37:52.883Z,5.60
2019-02-12T15:40:21.781Z,5.20
2019-02-12T15:42:50.515Z,5.07
2019-02-12T15:45:23.400Z,4.90
2019-02-12T15:47:52.128Z,4.60
2019-02-12T15:50:20.900Z,5.63
2019-02-12T15:52:49.561Z,6.27
2019-02-12T15:55:18.288Z,6.57
2019-02-12T15:57:47.061Z,5.63
2019-02-12T16:00:19.809Z,6.80
2019-02-12T16:02:47.895Z,6.00
2019-02-12T16:05:16.636Z,6.83
2019-02-12T16:07:47.364Z,6.13
2019-02-12T16:10:20.499Z,6.13
2019-02-12T16:12:51.775Z,7.90
2019-02-12T16:15:22.369Z,6.67
2019-02-12T16:17:51.378Z,6.13
2019-02-12T16:20:20.140Z,7.00
2019-02-12T16:22:48.803Z,6.70
2019-02-12T16:25:17.502Z,8.27
2019-02-12T16:27:46.286Z,7.13
2019-02-12T16:30:19.970Z,8.20
2019-02-12T16:32:48.693Z,7.57
2019-02-12T16:35:18.915Z,7.07
2019-02-12T16:37:49.292Z,7.50
2019-02-12T16:40:18.272Z,7.40
2019-02-12T16:42:47.005Z,12.07
2019-02-12T16:45:24.649Z,8.10
2019-02-12T16:47:53.355Z,8.27
2019-02-12T16:50:22.120Z,7.53
2019-02-12T16:59:03.442Z,7.33
2019-02-12T17:04:44.145Z,7.90
2019-02-12T17:07:12.906Z,6.87
2019-02-12T17:09:42.384Z,8.23
2019-02-12T17:12:11.201Z,6.80
2019-02-12T17:14:42.058Z,7.53
2019-02-12T17:17:23.504Z,8.00
2019-02-12T17:19:52.277Z,7.40
2019-02-12T17:22:20.963Z,7.03
2019-02-12T17:24:50.693Z,8.80
2019-02-12T17:27:19.395Z,8.23
2019-02-12T17:29:48.193Z,7.33
2019-02-12T17:32:16.986Z,7.70
2019-02-12T17:34:45.872Z,7.77
2019-02-12T17:37:18.024Z,7.43
2019-02-12T17:39:48.445Z,7.60
2019-02-12T17:42:18.511Z,7.50
2019-02-12T17:44:47.352Z,7.30
2019-02-12T17:47:17.019Z,7.03
2019-02-12T17:49:47.195Z,8.00
2019-02-12T17:52:17.047Z,7.63
2019-02-12T17:54:47.335Z,7.80
2019-02-12T17:57:16.109Z,7.80
2019-02-12T17:59:44.851Z,8.53
2019-02-12T18:02:13.551Z,9.03
2019-02-12T18:04:43.397Z,9.00
2019-02-12T18:07:12.091Z,8.00
2019-02-12T18:09:40.929Z,9.20
2019-02-12T18:12:09.638Z,8.70
2019-02-12T18:14:40.167Z,8.30
2019-02-12T18:17:08.880Z,9.03
2019-02-12T18:19:37.634Z,8.30
2019-02-12T18:22:07.566Z,7.97
2019-02-12T18:24:38.201Z,9.53
2019-02-12T18:27:09.807Z,10.17
2019-02-12T18:29:38.501Z,9.53
2019-02-12T18:32:07.336Z,8.13
2019-02-12T18:34:37.568Z,9.30
2019-02-12T18:37:08.692Z,10.00
2019-02-12T18:39:37.862Z,10.13
2019-02-12T18:42:06.705Z,9.00
2019-02-12T18:44:38.370Z,9.77
2019-02-12T18:47:07.167Z,9.80
2019-02-12T18:49:35.958Z,9.47
2019-02-12T18:52:06.858Z,8.80
2019-02-12T18:54:36.406Z,8.97
2019-02-12T18:57:05.169Z,11.13
2019-02-12T18:59:34.032Z,9.07
2019-02-12T19:02:02.767Z,9.33
2019-02-12T19:04:31.633Z,9.50
2019-02-12T19:07:01.750Z,9.30
2019-02-12T19:09:30.581Z,9.47
2019-02-12T19:12:00.811Z,9.20
2019-02-12T19:14:29.693Z,8.47
2019-02-12T19:16:58.551Z,9.90
2019-02-12T19:19:27.370Z,9.57
2019-02-12T19:21:57.416Z,10.50
2019-02-12T19:24:26.141Z,8.63
2019-02-12T19:26:55.885Z,10.00
2019-02-12T19:29:24.672Z,9.03
2019-02-12T19:31:59.186Z,9.63
2019-02-12T19:34:23.990Z,10.17
2019-02-12T19:36:52.768Z,9.70
2019-02-12T19:39:23.153Z,9.73
2019-02-12T19:41:51.870Z,9.83
2019-02-12T19:44:20.648Z,9.60
2019-02-12T19:46:50.881Z,11.33
2019-02-12T19:49:22.177Z,10.33
2019-02-12T19:51:51.008Z,9.10
2019-02-12T19:54:21.962Z,10.87
2019-02-12T19:56:58.063Z,11.83
2019-02-12T19:59:23.295Z,12.03
2019-02-12T20:01:56.835Z,11.10
2019-02-12T20:04:28.039Z,9.67
2019-02-12T20:06:56.736Z,11.00
2019-02-12T20:09:27.516Z,10.43
2019-02-12T20:11:56.368Z,10.20
2019-02-12T20:14:25.160Z,10.67
2019-02-12T20:16:54.570Z,9.40
2019-02-12T20:19:24.610Z,11.23
2019-02-12T20:21:55.577Z,10.10
2019-02-12T20:24:25.937Z,10.50
2019-02-12T20:26:54.738Z,10.23
2019-02-12T20:29:23.502Z,10.60
2019-02-12T20:31:53.498Z,9.73
2019-02-12T20:34:22.300Z,10.37
2019-02-12T20:36:51.069Z,11.33
2019-02-12T20:39:22.310Z,9.40
2019-02-12T20:41:51.085Z,9.70
2019-02-12T20:44:22.440Z,10.60
2019-02-12T20:46:54.085Z,10.07
2019-02-12T20:49:24.183Z,11.63
2019-02-12T20:51:54.976Z,11.43
2019-02-12T20:54:25.194Z,11.00
2019-02-12T20:56:55.744Z,10.67
2019-02-12T20:59:24.466Z,11.53
2019-02-12T21:01:55.704Z,11.00
2019-02-12T21:04:27.834Z,12.10
2019-02-12T21:06:56.675Z,11.57
2019-02-12T21:09:28.001Z,12.00
2019-02-12T21:11:57.749Z,10.20
2019-02-12T21:14:26.504Z,10.90
2019-02-12T21:16:58.032Z,11.47
2019-02-12T21:19:26.913Z,12.03
2019-02-12T21:21:57.221Z,12.27
2019-02-12T21:24:27.785Z,10.30
2019-02-12T21:26:57.281Z,13.00
2019-02-12T21:29:32.376Z,12.17
2019-02-12T21:32:01.164Z,11.53
2019-02-12T21:34:29.882Z,12.83
2019-02-12T21:37:00.119Z,12.87
2019-02-12T21:39:28.924Z,11.27
2019-02-12T21:41:57.626Z,10.70
2019-02-12T21:44:26.388Z,11.43
2019-02-12T21:46:56.601Z,11.67
2019-02-12T21:49:25.347Z,13.23
2019-02-12T21:51:54.184Z,12.63
2019-02-12T21:54:22.984Z,12.03
2019-02-12T21:56:53.309Z,12.60
2019-02-12T21:59:23.343Z,11.87
2019-02-12T22:01:52.097Z,12.23
2019-02-12T22:04:22.004Z,12.33
2019-02-12T22:06:50.836Z,11.93
2019-02-12T22:09:19.615Z,12.07
2019-02-12T22:11:49.691Z,13.30
2019-02-12T22:14:21.277Z,13.70
2019-02-12T22:16:50.061Z,11.60
2019-02-12T22:19:18.761Z,12.07
2019-02-12T22:21:47.546Z,12.43
2019-02-12T22:24:17.398Z,13.77
2019-02-12T22:26:48.598Z,11.20
2019-02-12T22:29:17.472Z,12.30
2019-02-12T22:31:46.252Z,12.23
2019-02-12T22:34:15.124Z,11.67
2019-02-12T22:36:43.869Z,13.23
2019-02-12T22:39:14.731Z,12.30
2019-02-12T22:41:44.937Z,11.07
2019-02-12T22:44:13.951Z,11.20
2019-02-12T22:46:46.102Z,12.33
2019-02-12T22:49:14.904Z,11.30
2019-02-12T22:51:43.727Z,12.07
2019-02-12T22:54:15.153Z,12.57
2019-02-12T22:56:45.305Z,12.10
2019-02-12T22:59:15.317Z,12.07
2019-02-12T23:01:47.077Z,12.27
2019-02-12T23:04:16.906Z,14.30
2019-02-12T23:06:45.849Z,13.10
2019-02-12T23:09:16.115Z,11.53
2019-02-12T23:11:44.866Z,12.37
2019-02-12T23:14:16.979Z,12.77
2019-02-12T23:16:45.727Z,11.63
2019-02-12T23:19:14.517Z,11.30
2019-02-12T23:21:45.712Z,12.40
2019-02-12T23:24:15.347Z,10.63
2019-02-12T23:26:45.628Z,12.23
2019-02-12T23:29:14.595Z,10.77
2019-02-12T23:31:45.782Z,12.10
2019-02-12T23:34:14.528Z,11.00
2019-02-12T23:36:43.841Z,10.70
2019-02-12T23:39:12.693Z,11.17
2019-02-12T23:41:44.209Z,11.00
2019-02-12T23:44:13.012Z,11.87
2019-02-12T23:46:41.795Z,10.27
2019-02-12T23:49:10.588Z,9.80
2019-02-12T23:51:39.395Z,10.90
2019-02-12T23:54:08.189Z,11.27
2019-02-12T23:56:37.150Z,10.93
2019-02-12T23:59:07.193Z,11.80
